createdAt,value
2023-09-16T00:02:06.698Z,17.60
2023-09-16T00:04:33.212Z,17.15
2023-09-16T00:07:00.342Z,17.88
2023-09-16T00:09:26.826Z,17.83
2023-09-16T00:11:53.452Z,17.50
2023-09-16T00:14:20.495Z,18.45
2023-09-16T00:16:47.101Z,18.58
2023-09-16T00:19:13.893Z,18.10
2023-09-16T00:21:41.537Z,18.92
2023-09-16T00:24:11.135Z,18.60
2023-09-16T00:26:37.593Z,20.10
2023-09-16T00:29:04.078Z,18.55
2023-09-16T00:31:30.584Z,17.83
2023-09-16T00:33:57.175Z,18.08
2023-09-16T00:36:23.839Z,18.50
2023-09-16T00:38:50.613Z,18.05
2023-09-16T00:41:17.386Z,18.25
2023-09-16T00:43:43.868Z,17.80
2023-09-16T00:46:10.614Z,18.27
2023-09-16T00:48:40.704Z,20.08
2023-09-16T00:51:07.910Z,18.40
2023-09-16T00:53:34.876Z,18.95
2023-09-16T00:56:01.634Z,18.13
2023-09-16T00:58:28.180Z,18.90
2023-09-16T01:00:54.837Z,19.05
2023-09-16T01:03:21.814Z,20.52
2023-09-16T01:05:48.838Z,18.40
2023-09-16T01:08:16.517Z,18.80
2023-09-16T01:10:43.615Z,19.17
2023-09-16T01:13:10.994Z,19.25
2023-09-16T01:15:46.327Z,19.23
2023-09-16T01:18:20.673Z,18.88
2023-09-16T01:20:49.337Z,19.27
2023-09-16T01:23:21.470Z,18.88
2023-09-16T01:25:48.059Z,19.13
2023-09-16T01:28:15.393Z,19.70
2023-09-16T01:30:49.688Z,21.25
2023-09-16T01:33:37.222Z,19.17
2023-09-16T01:36:08.715Z,20.55
2023-09-16T01:38:38.351Z,19.83
2023-09-16T01:41:06.466Z,18.27
2023-09-16T01:43:33.363Z,20.23
2023-09-16T01:45:59.881Z,18.92
2023-09-16T01:48:36.455Z,19.48
2023-09-16T01:51:11.338Z,19.67
2023-09-16T01:53:37.767Z,19.25
2023-09-16T01:56:04.275Z,20.55
2023-09-16T01:58:30.850Z,20.40
2023-09-16T02:00:57.299Z,20.25
2023-09-16T02:03:23.884Z,20.35
2023-09-16T02:05:51.043Z,20.63
2023-09-16T02:08:17.482Z,21.73
2023-09-16T02:10:43.984Z,21.95
2023-09-16T02:13:10.914Z,20.63
2023-09-16T02:15:37.558Z,20.52
2023-09-16T02:18:04.420Z,21.85
2023-09-16T02:20:30.961Z,20.23
2023-09-16T02:22:57.538Z,20.77
2023-09-16T02:25:23.972Z,20.40
2023-09-16T02:27:50.613Z,21.88
2023-09-16T02:30:17.267Z,22.08
2023-09-16T02:32:49.755Z,20.90
2023-09-16T02:35:17.412Z,20.33
2023-09-16T02:37:43.883Z,21.58
2023-09-16T02:40:10.768Z,22.58
2023-09-16T02:42:37.233Z,23.05
2023-09-16T02:45:04.590Z,22.55
2023-09-16T02:47:33.051Z,21.65
2023-09-16T02:50:01.584Z,22.00
2023-09-16T02:52:28.293Z,22.02
2023-09-16T02:54:54.822Z,22.50
2023-09-16T02:57:21.594Z,23.23
2023-09-16T02:59:48.042Z,22.60
2023-09-16T03:02:14.499Z,23.73
2023-09-16T03:04:41.060Z,22.27
2023-09-16T03:07:07.599Z,23.08
2023-09-16T03:09:34.112Z,23.55
2023-09-16T03:12:00.595Z,23.23
2023-09-16T03:14:27.148Z,23.55
2023-09-16T03:16:53.824Z,23.30
2023-09-16T03:19:20.549Z,23.83
2023-09-16T03:21:47.199Z,23.55
2023-09-16T03:24:13.706Z,23.60
2023-09-16T03:26:40.365Z,24.17
2023-09-16T03:29:06.988Z,23.58
2023-09-16T03:31:33.449Z,24.30
2023-09-16T03:33:59.976Z,23.95
2023-09-16T03:36:27.027Z,23.80
2023-09-16T03:38:53.605Z,24.98
2023-09-16T03:41:20.540Z,23.55
2023-09-16T03:43:49.956Z,25.38
2023-09-16T03:46:17.104Z,23.60
2023-09-16T03:48:43.810Z,25.20
2023-09-16T03:51:10.662Z,24.17
2023-09-16T03:53:55.655Z,26.45
2023-09-16T03:56:22.187Z,24.42
2023-09-16T03:58:48.949Z,25.35
2023-09-16T04:01:15.933Z,24.40
2023-09-16T04:03:43.834Z,25.23
2023-09-16T04:06:10.465Z,25.92
2023-09-16T04:08:42.494Z,26.45
2023-09-16T04:11:10.815Z,26.52
2023-09-16T04:13:37.950Z,25.05
2023-09-16T04:16:04.664Z,26.05
2023-09-16T04:18:32.203Z,26.27
2023-09-16T04:20:58.785Z,27.38
2023-09-16T04:23:26.114Z,26.10
2023-09-16T04:25:59.192Z,26.73
2023-09-16T04:28:25.927Z,25.75
2023-09-16T04:30:53.506Z,29.30
2023-09-16T04:33:24.349Z,26.15
2023-09-16T04:35:52.183Z,25.02
2023-09-16T04:38:19.740Z,26.52
2023-09-16T04:40:47.958Z,23.23
2023-09-16T04:43:14.681Z,23.60
2023-09-16T04:45:45.989Z,24.10
2023-09-16T04:48:14.596Z,24.88
2023-09-16T04:50:46.889Z,24.77
2023-09-16T04:53:13.623Z,26.60
2023-09-16T04:55:42.431Z,23.08
2023-09-16T04:58:09.533Z,23.70
2023-09-16T05:00:36.600Z,25.38
2023-09-16T05:03:03.837Z,24.13
2023-09-16T05:05:30.704Z,30.00
2023-09-16T05:07:57.280Z,25.17
2023-09-16T05:10:23.903Z,26.35
2023-09-16T05:12:50.663Z,24.60
2023-09-16T05:15:17.270Z,25.05
2023-09-16T05:17:43.796Z,25.00
2023-09-16T05:20:10.875Z,25.50
2023-09-16T05:22:39.562Z,24.67
2023-09-16T05:25:06.877Z,25.67
2023-09-16T05:27:33.666Z,23.98
2023-09-16T05:30:02.947Z,25.02
2023-09-16T05:32:32.796Z,26.40
2023-09-16T05:34:59.798Z,24.63
2023-09-16T05:37:26.209Z,25.45
2023-09-16T05:39:52.728Z,25.40
2023-09-16T05:42:19.256Z,26.05
2023-09-16T05:44:45.707Z,25.85
2023-09-16T05:47:12.504Z,25.35
2023-09-16T05:49:39.118Z,24.63
2023-09-16T05:52:06.006Z,25.35
2023-09-16T05:54:32.574Z,24.08
2023-09-16T05:56:59.191Z,26.05
2023-09-16T05:59:25.798Z,25.20
2023-09-16T06:01:52.293Z,24.80
2023-09-16T06:04:18.884Z,24.70
2023-09-16T06:06:47.845Z,25.25
2023-09-16T06:09:14.352Z,24.95
2023-09-16T06:11:40.793Z,25.15
2023-09-16T06:14:07.672Z,28.50
2023-09-16T06:16:37.431Z,25.33
2023-09-16T06:19:04.233Z,24.52
2023-09-16T06:21:31.590Z,25.00
2023-09-16T06:23:58.977Z,26.27
2023-09-16T06:26:25.785Z,24.98
2023-09-16T06:28:52.275Z,27.13
2023-09-16T06:31:18.790Z,27.83
2023-09-16T06:33:45.359Z,23.83
2023-09-16T06:36:11.931Z,23.85
2023-09-16T06:38:38.383Z,25.85
2023-09-16T06:41:04.909Z,22.85
2023-09-16T06:43:31.414Z,22.50
2023-09-16T06:45:57.953Z,21.08
2023-09-16T06:48:24.574Z,20.25
2023-09-16T06:50:52.046Z,21.45
2023-09-16T06:53:18.804Z,18.95
2023-09-16T06:55:45.293Z,19.45
2023-09-16T06:58:11.860Z,19.52
2023-09-16T07:00:38.568Z,19.50
2023-09-16T07:03:06.680Z,19.65
2023-09-16T07:05:34.069Z,19.90
2023-09-16T07:08:00.694Z,19.23
2023-09-16T07:10:27.237Z,19.27
2023-09-16T07:13:03.069Z,20.25
2023-09-16T07:15:29.527Z,18.45
2023-09-16T07:17:55.974Z,18.60
2023-09-16T07:20:24.070Z,17.67
2023-09-16T07:22:52.464Z,17.52
2023-09-16T07:25:19.097Z,18.02
2023-09-16T07:27:45.624Z,17.10
2023-09-16T07:30:12.352Z,17.60
2023-09-16T07:32:39.146Z,17.95
2023-09-16T07:35:05.841Z,20.00
2023-09-16T07:37:32.319Z,20.67
2023-09-16T07:39:58.867Z,18.02
2023-09-16T07:42:25.638Z,18.73
2023-09-16T07:44:52.362Z,18.40
2023-09-16T07:47:18.823Z,17.73
2023-09-16T07:49:45.301Z,18.77
2023-09-16T07:52:11.789Z,18.00
2023-09-16T07:54:38.257Z,20.15
2023-09-16T07:57:05.047Z,18.45
2023-09-16T07:59:31.508Z,17.42
2023-09-16T08:01:58.161Z,19.02
2023-09-16T08:04:24.732Z,18.08
2023-09-16T08:06:51.634Z,18.50
2023-09-16T08:09:18.512Z,19.20
2023-09-16T08:11:45.068Z,17.55
2023-09-16T08:14:11.686Z,18.13
2023-09-16T08:16:38.250Z,19.38
2023-09-16T08:19:08.165Z,17.65
2023-09-16T08:21:35.648Z,16.20
2023-09-16T08:24:02.169Z,18.70
2023-09-16T08:26:30.152Z,16.92
2023-09-16T08:28:56.813Z,19.95
2023-09-16T08:31:23.415Z,17.33
2023-09-16T08:33:51.757Z,19.73
2023-09-16T08:36:18.482Z,17.55
2023-09-16T08:38:44.989Z,17.50
2023-09-16T08:41:38.989Z,18.00
2023-09-16T08:44:06.829Z,17.17
2023-09-16T08:46:35.631Z,16.85
2023-09-16T08:49:07.551Z,17.48
2023-09-16T08:51:40.606Z,17.17
2023-09-16T08:54:09.901Z,17.90
2023-09-16T08:56:38.021Z,16.50
2023-09-16T08:59:04.567Z,15.20
2023-09-16T09:01:31.600Z,15.98
2023-09-16T09:03:59.792Z,16.60
2023-09-16T09:06:40.109Z,16.27
2023-09-16T09:09:07.240Z,16.23
2023-09-16T09:11:34.696Z,16.30
2023-09-16T09:14:02.369Z,15.88
2023-09-16T09:16:31.334Z,16.38
2023-09-16T09:18:58.423Z,15.95
2023-09-16T09:21:25.844Z,16.17
2023-09-16T09:23:52.487Z,20.38
2023-09-16T09:26:18.950Z,19.35
2023-09-16T09:28:49.224Z,18.63
2023-09-16T09:31:16.735Z,18.27
2023-09-16T09:33:43.476Z,19.73
2023-09-16T09:36:12.698Z,16.88
2023-09-16T09:38:41.077Z,17.45
2023-09-16T09:41:07.841Z,16.70
2023-09-16T09:43:34.498Z,16.02
2023-09-16T09:46:01.159Z,18.50
2023-09-16T09:48:27.911Z,18.15
2023-09-16T09:50:54.577Z,18.80
2023-09-16T09:53:23.884Z,17.48
2023-09-16T09:55:51.142Z,17.80
2023-09-16T09:58:21.126Z,16.60
2023-09-16T10:00:54.565Z,15.43
2023-09-16T10:03:24.003Z,16.23
2023-09-16T10:05:51.607Z,15.77
2023-09-16T10:08:18.164Z,16.00
2023-09-16T10:10:47.885Z,19.30
2023-09-16T10:15:42.443Z,17.15
2023-09-16T10:18:09.191Z,15.60
2023-09-16T10:20:39.565Z,19.20
2023-09-16T10:23:06.749Z,17.02
2023-09-16T10:25:36.102Z,17.15
2023-09-16T10:28:07.539Z,17.13
2023-09-16T10:30:36.027Z,17.42
2023-09-16T10:33:11.974Z,17.17
2023-09-16T10:35:41.857Z,17.30
2023-09-16T10:38:11.409Z,17.77
2023-09-16T10:43:08.112Z,16.70
2023-09-16T10:45:35.171Z,16.98
2023-09-16T10:48:03.054Z,16.90
2023-09-16T10:50:35.902Z,16.27
2023-09-16T10:53:06.824Z,16.63
2023-09-16T10:55:46.046Z,20.15
2023-09-16T10:58:39.848Z,17.38
2023-09-16T11:01:09.367Z,16.50
2023-09-16T11:03:41.489Z,15.77
2023-09-16T11:06:08.398Z,16.10
2023-09-16T11:08:35.137Z,16.25
2023-09-16T11:11:01.826Z,16.42
2023-09-16T11:13:31.228Z,16.55
2023-09-16T11:16:01.955Z,15.60
2023-09-16T11:18:30.824Z,16.30
2023-09-16T11:20:57.413Z,15.52
2023-09-16T11:23:25.514Z,15.95
2023-09-16T11:25:52.006Z,15.73
2023-09-16T11:28:19.907Z,15.63
2023-09-16T11:30:57.379Z,16.88
2023-09-16T11:33:35.630Z,16.70
2023-09-16T11:36:17.054Z,16.00
2023-09-16T11:39:12.981Z,15.73
2023-09-16T11:41:39.520Z,15.90
2023-09-16T11:44:08.055Z,14.82
2023-09-16T11:46:35.679Z,14.65
2023-09-16T11:49:06.595Z,14.30
2023-09-16T11:51:37.492Z,15.60
2023-09-16T11:54:05.723Z,14.23
2023-09-16T11:56:36.819Z,14.80
2023-09-16T11:59:05.440Z,14.15
2023-09-16T12:01:34.266Z,15.27
2023-09-16T12:04:04.984Z,14.97
2023-09-16T12:06:33.544Z,13.65
2023-09-16T12:09:00.500Z,13.07
2023-09-16T12:11:28.434Z,12.75
2023-09-16T12:13:55.970Z,13.30
2023-09-16T12:16:23.740Z,14.05
2023-09-16T12:18:50.560Z,13.43
2023-09-16T12:21:17.428Z,13.70
2023-09-16T12:23:46.479Z,13.57
2023-09-16T12:26:13.682Z,13.27
2023-09-16T12:28:41.105Z,13.30
2023-09-16T12:31:10.673Z,13.25
2023-09-16T12:33:49.447Z,12.38
2023-09-16T12:36:27.775Z,12.80
2023-09-16T12:38:55.860Z,12.75
2023-09-16T12:41:23.256Z,12.35
2023-09-16T12:43:50.956Z,12.27
2023-09-16T12:46:21.697Z,12.00
2023-09-16T12:48:50.947Z,12.77
2023-09-16T12:51:22.234Z,12.32
2023-09-16T12:53:53.529Z,12.25
2023-09-16T12:56:20.233Z,12.27
2023-09-16T12:58:49.417Z,12.13
2023-09-16T13:01:20.799Z,11.98
2023-09-16T13:03:47.990Z,12.32
2023-09-16T13:06:14.896Z,13.05
2023-09-16T13:08:42.397Z,12.55
2023-09-16T13:11:10.647Z,11.75
2023-09-16T13:13:37.448Z,12.30
2023-09-16T13:16:07.944Z,24.60
2023-09-16T13:18:38.810Z,13.05
2023-09-16T13:21:05.878Z,12.43
2023-09-16T13:23:33.925Z,15.15
2023-09-16T13:26:15.071Z,13.13
2023-09-16T13:28:56.181Z,13.10
2023-09-16T13:31:25.148Z,12.90
2023-09-16T13:34:01.621Z,13.77
2023-09-16T13:36:34.480Z,13.80
2023-09-16T13:39:04.477Z,14.10
2023-09-16T13:41:31.417Z,14.25
2023-09-16T13:43:57.981Z,14.05
2023-09-16T13:46:26.384Z,13.93
2023-09-16T13:48:55.831Z,14.43
2023-09-16T13:53:49.303Z,13.55
2023-09-16T13:56:15.838Z,13.27
2023-09-16T13:58:42.607Z,13.75
2023-09-16T14:01:09.174Z,13.30
2023-09-16T14:03:35.961Z,13.52
2023-09-16T14:06:02.587Z,13.18
2023-09-16T14:08:29.131Z,13.30
2023-09-16T14:10:55.615Z,14.15
2023-09-16T14:13:22.511Z,12.85
2023-09-16T14:15:49.142Z,13.05
2023-09-16T14:18:15.870Z,13.07
2023-09-16T14:20:42.426Z,13.15
2023-09-16T14:23:08.990Z,12.73
2023-09-16T14:25:35.752Z,13.27
2023-09-16T14:28:04.272Z,14.13
2023-09-16T14:30:32.936Z,14.47
2023-09-16T14:32:59.965Z,13.88
2023-09-16T14:35:26.541Z,13.50
2023-09-16T14:37:54.786Z,14.18
2023-09-16T14:40:21.905Z,13.93
2023-09-16T14:42:48.468Z,14.60
2023-09-16T14:45:15.031Z,13.82
2023-09-16T14:47:44.132Z,13.65
2023-09-16T14:50:12.811Z,13.57
2023-09-16T14:52:41.636Z,13.40
2023-09-16T14:55:10.871Z,13.80
2023-09-16T14:57:38.441Z,12.23
2023-09-16T15:00:09.583Z,12.80
2023-09-16T15:02:39.850Z,12.52
2023-09-16T15:05:08.416Z,12.45
2023-09-16T15:07:35.741Z,12.50
2023-09-16T15:10:02.673Z,13.05
2023-09-16T15:12:29.436Z,13.23
2023-09-16T15:14:55.931Z,12.85
2023-09-16T15:17:22.441Z,12.63
2023-09-16T15:19:48.888Z,12.50
2023-09-16T15:22:15.770Z,12.88
2023-09-16T15:24:42.527Z,11.88
2023-09-16T15:27:08.981Z,12.32
2023-09-16T15:29:35.641Z,13.00
2023-09-16T15:32:29.641Z,13.00
2023-09-16T15:34:48.737Z,12.93
2023-09-16T15:37:15.866Z,12.93
2023-09-16T15:39:42.363Z,12.45
2023-09-16T15:42:08.814Z,12.40
2023-09-16T15:44:35.283Z,13.40
2023-09-16T15:47:02.688Z,12.82
2023-09-16T15:49:30.536Z,13.07
2023-09-16T15:51:57.216Z,12.57
2023-09-16T15:54:26.065Z,12.05
2023-09-16T15:56:53.008Z,12.68
2023-09-16T15:59:19.566Z,13.02
2023-09-16T16:01:46.096Z,12.75
2023-09-16T16:04:12.755Z,12.70
2023-09-16T16:06:39.213Z,12.75
2023-09-16T16:09:05.841Z,12.02
2023-09-16T16:11:32.310Z,12.55
2023-09-16T16:13:58.825Z,12.32
2023-09-16T16:16:25.472Z,12.02
2023-09-16T16:18:53.749Z,13.88
2023-09-16T16:21:20.844Z,39.17
2023-09-16T16:23:47.330Z,60.03
2023-09-16T16:26:15.791Z,49.17
2023-09-16T16:28:42.262Z,35.65
2023-09-16T16:31:09.979Z,25.05
2023-09-16T16:33:36.625Z,17.25
2023-09-16T16:36:04.272Z,15.48
2023-09-16T16:38:31.142Z,18.55
2023-09-16T16:40:57.990Z,13.82
2023-09-16T16:43:24.984Z,14.30
2023-09-16T16:45:52.116Z,13.82
2023-09-16T16:48:18.809Z,14.07
2023-09-16T16:50:45.660Z,13.48
2023-09-16T16:53:12.134Z,14.88
2023-09-16T16:55:38.607Z,13.70
2023-09-16T16:58:05.176Z,13.38
2023-09-16T17:00:32.153Z,13.95
2023-09-16T17:02:58.717Z,14.55
2023-09-16T17:05:27.305Z,15.40
2023-09-16T17:07:57.532Z,15.98
2023-09-16T17:10:24.696Z,16.25
2023-09-16T17:12:51.257Z,16.60
2023-09-16T17:15:17.706Z,15.70
2023-09-16T17:17:44.275Z,15.50
2023-09-16T17:20:11.086Z,16.77
2023-09-16T17:22:37.665Z,17.25
2023-09-16T17:25:05.635Z,19.15
2023-09-16T17:27:32.483Z,18.85
2023-09-16T17:29:59.584Z,21.83
2023-09-16T17:32:26.151Z,18.88
2023-09-16T17:34:52.647Z,18.50
2023-09-16T17:37:19.546Z,18.08
2023-09-16T17:39:46.044Z,16.33
2023-09-16T17:42:12.537Z,17.50
2023-09-16T17:44:39.639Z,19.02
2023-09-16T17:47:06.138Z,19.25
2023-09-16T17:49:33.198Z,17.80
2023-09-16T17:52:00.172Z,22.95
2023-09-16T17:54:27.218Z,23.70
2023-09-16T17:56:53.772Z,23.65
2023-09-16T17:59:20.277Z,24.98
2023-09-16T18:01:47.169Z,22.50
2023-09-16T18:04:13.802Z,23.40
2023-09-16T18:06:41.973Z,30.52
2023-09-16T18:09:11.060Z,48.63
2023-09-16T18:11:37.703Z,44.25
2023-09-16T18:14:04.492Z,38.85
2023-09-16T18:16:32.834Z,27.27
2023-09-16T18:18:59.560Z,32.20
2023-09-16T18:21:26.049Z,27.17
2023-09-16T18:23:52.634Z,26.77
2023-09-16T18:26:19.529Z,26.55
2023-09-16T18:28:46.012Z,21.77
2023-09-16T18:31:14.457Z,23.88
2023-09-16T18:33:41.013Z,21.23
2023-09-16T18:36:07.531Z,20.95
2023-09-16T18:38:34.077Z,20.38
2023-09-16T18:41:00.589Z,23.10
2023-09-16T18:43:27.223Z,21.55
2023-09-16T18:45:53.796Z,20.70
2023-09-16T18:48:21.119Z,22.63
2023-09-16T18:50:47.694Z,24.95
2023-09-16T18:53:14.295Z,26.83
2023-09-16T18:55:45.648Z,25.55
2023-09-16T18:58:13.649Z,24.45
2023-09-16T19:00:41.193Z,28.15
2023-09-16T19:03:08.869Z,27.95
2023-09-16T19:05:39.868Z,28.40
2023-09-16T19:08:07.557Z,28.50
2023-09-16T19:10:34.441Z,27.95
2023-09-16T19:13:01.118Z,30.60
2023-09-16T19:15:30.596Z,31.00
2023-09-16T19:17:57.255Z,34.35
2023-09-16T19:20:24.001Z,33.63
2023-09-16T19:22:50.654Z,36.80
2023-09-16T19:25:17.723Z,31.20
2023-09-16T19:27:44.513Z,29.20
2023-09-16T19:30:11.369Z,33.65
2023-09-16T19:32:39.607Z,29.05
2023-09-16T19:35:06.781Z,33.38
2023-09-16T19:37:33.274Z,29.42
2023-09-16T19:40:02.395Z,31.40
2023-09-16T19:42:29.488Z,32.58
2023-09-16T19:44:56.065Z,28.42
2023-09-16T19:47:25.363Z,32.28
2023-09-16T19:49:53.491Z,27.40
2023-09-16T19:52:20.704Z,26.80
2023-09-16T19:54:47.324Z,27.17
2023-09-16T19:57:14.145Z,25.95
2023-09-16T19:59:40.711Z,25.77
2023-09-16T20:02:07.262Z,26.83
2023-09-16T20:04:33.869Z,26.35
2023-09-16T20:07:00.738Z,30.02
2023-09-16T20:09:28.137Z,28.75
2023-09-16T20:11:54.642Z,28.42
2023-09-16T20:14:21.088Z,28.20
2023-09-16T20:16:47.780Z,29.45
2023-09-16T20:19:18.645Z,30.25
2023-09-16T20:21:46.509Z,32.80
2023-09-16T20:24:13.317Z,32.22
2023-09-16T20:26:40.271Z,26.70
2023-09-16T20:29:06.886Z,29.35
2023-09-16T20:31:34.000Z,28.38
2023-09-16T20:34:11.019Z,26.60
2023-09-16T20:36:42.085Z,28.60
2023-09-16T20:39:08.530Z,27.77
2023-09-16T20:41:34.940Z,29.17
2023-09-16T20:44:02.781Z,28.45
2023-09-16T20:46:29.968Z,26.23
2023-09-16T20:48:56.551Z,23.25
2023-09-16T20:51:23.024Z,24.73
2023-09-16T20:53:49.747Z,25.20
2023-09-16T20:56:16.568Z,24.45
2023-09-16T20:58:44.017Z,26.73
2023-09-16T21:01:10.813Z,25.33
2023-09-16T21:03:37.747Z,24.00
2023-09-16T21:06:04.842Z,26.30
2023-09-16T21:08:31.318Z,25.42
2023-09-16T21:10:57.920Z,25.67
2023-09-16T21:13:24.435Z,24.33
2023-09-16T21:15:51.584Z,26.70
2023-09-16T21:18:18.228Z,25.80
2023-09-16T21:20:44.718Z,25.05
2023-09-16T21:23:11.208Z,23.10
2023-09-16T21:25:39.876Z,26.80
2023-09-16T21:28:07.649Z,24.83
2023-09-16T21:30:34.395Z,22.85
2023-09-16T21:33:01.163Z,22.38
2023-09-16T21:35:29.737Z,23.35
2023-09-16T21:37:56.348Z,24.58
2023-09-16T21:40:24.114Z,26.48
2023-09-16T21:42:51.915Z,22.63
2023-09-16T21:45:18.763Z,22.27
2023-09-16T21:47:45.221Z,23.88
2023-09-16T21:50:12.632Z,23.38
2023-09-16T21:52:39.113Z,22.08
2023-09-16T21:55:06.120Z,24.50
2023-09-16T21:57:32.697Z,22.92
2023-09-16T21:59:59.150Z,26.35
2023-09-16T22:02:25.739Z,25.33
2023-09-16T22:04:52.363Z,30.83
2023-09-16T22:07:18.896Z,27.75
2023-09-16T22:09:46.739Z,27.50
2023-09-16T22:12:13.442Z,25.42
2023-09-16T22:14:39.980Z,24.83
2023-09-16T22:17:06.438Z,27.67
2023-09-16T22:19:32.942Z,34.20
2023-09-16T22:21:59.617Z,46.53
2023-09-16T22:24:26.140Z,52.10
2023-09-16T22:26:52.745Z,46.40
2023-09-16T22:29:19.188Z,35.15
2023-09-16T22:31:45.762Z,31.10
2023-09-16T22:34:13.101Z,31.35
2023-09-16T22:36:39.775Z,34.05
2023-09-16T22:39:06.262Z,37.45
2023-09-16T22:41:32.803Z,31.52
2023-09-16T22:43:59.401Z,30.90
2023-09-16T22:46:26.007Z,34.85
2023-09-16T22:48:52.589Z,34.72
2023-09-16T22:51:19.129Z,30.33
2023-09-16T22:53:45.641Z,31.90
2023-09-16T22:56:12.192Z,34.30
2023-09-16T22:58:39.650Z,35.22
2023-09-16T23:01:08.344Z,31.00
2023-09-16T23:03:34.989Z,32.00
2023-09-16T23:06:02.080Z,31.42
2023-09-16T23:08:29.441Z,30.33
2023-09-16T23:10:55.939Z,30.60
2023-09-16T23:13:23.151Z,29.20
2023-09-16T23:15:50.084Z,29.05
2023-09-16T23:18:16.572Z,28.20
2023-09-16T23:20:43.337Z,29.08
2023-09-16T23:23:09.936Z,29.83
2023-09-16T23:25:36.438Z,30.17
2023-09-16T23:28:03.116Z,30.40
2023-09-16T23:30:29.714Z,30.52
2023-09-16T23:32:56.198Z,28.95
2023-09-16T23:35:22.631Z,28.52
2023-09-16T23:37:49.071Z,30.20
2023-09-16T23:40:15.851Z,31.83
2023-09-16T23:42:42.349Z,31.13
2023-09-16T23:45:09.180Z,30.98
2023-09-16T23:47:35.838Z,30.70
2023-09-16T23:50:02.421Z,32.17
2023-09-16T23:52:29.178Z,31.08
2023-09-16T23:54:55.695Z,30.40
2023-09-16T23:57:22.179Z,29.67
2023-09-16T23:59:48.680Z,29.35
